Time;durP1;ratioP1;P1;durP2;ratioP2;P2;SDS_P1;SDS_P2;PMS_P1;PMS_P2;Temp;Humidity;BMP_temperature;BMP_pressure;BME280_temperature;BME280_humidity;BME280_pressure;Samples;Min_cycle;Max_cycle;Signal;HPM_P1;HPM_P2
2022/04/26 03:36:59;;;;;;;9.75;5.15;;;;;;;8.00;78.42;101534.31;5042009;28;20064;-87
2022/04/26 03:39:25;;;;;;;10.40;5.55;;;;;;;7.99;78.46;101532.53;5043943;28;20049;-88
2022/04/26 03:41:51;;;;;;;10.38;5.63;;;;;;;7.97;78.48;101532.47;5042817;28;20271;-88
2022/04/26 03:44:16;;;;;;;8.98;5.32;;;;;;;7.97;78.91;101532.47;5043906;28;20037;-88
2022/04/26 03:46:41;;;;;;;10.57;5.72;;;;;;;7.96;78.90;101524.59;5041949;28;20025;-89
2022/04/26 03:49:06;;;;;;;10.88;5.88;;;;;;;7.95;78.79;101530.59;5042004;28;20029;-89
2022/04/26 03:51:33;;;;;;;7.35;5.10;;;;;;;7.94;78.94;101527.13;5043818;28;20041;-88
2022/04/26 03:53:58;;;;;;;11.50;5.93;;;;;;;7.93;79.20;101533.13;5042557;28;20021;-88
2022/04/26 03:56:23;;;;;;;11.05;6.65;;;;;;;7.94;79.57;101539.22;5042812;28;20071;-87
2022/04/26 03:58:49;;;;;;;10.07;6.00;;;;;;;7.93;79.01;101534.84;5042471;28;20025;-88
2022/04/26 04:01:15;;;;;;;8.90;5.50;;;;;;;7.92;79.61;101535.66;5043655;28;20021;-87
2022/04/26 04:03:40;;;;;;;9.52;6.10;;;;;;;7.92;79.56;101543.44;5043673;28;20029;-87
2022/04/26 04:06:06;;;;;;;10.27;6.07;;;;;;;7.90;79.82;101539.91;5042362;28;20335;-87
2022/04/26 04:08:31;;;;;;;10.63;5.85;;;;;;;7.90;79.78;101537.31;5042457;28;20041;-87
2022/04/26 04:10:56;;;;;;;9.18;6.13;;;;;;;7.92;79.86;101553.81;5043541;28;20303;-87
2022/04/26 04:13:22;;;;;;;10.25;5.63;;;;;;;7.91;80.19;101549.47;5043106;28;20046;-87
2022/04/26 04:15:47;;;;;;;12.90;6.50;;;;;;;7.91;80.45;101552.94;5043183;28;20322;-87
2022/04/26 04:20:57;;;;;;;10.88;5.85;;;;;;;7.93;79.98;101563.41;5041097;28;20080;-87
2022/04/26 04:23:22;;;;;;;10.15;6.10;;;;;;;7.95;80.24;101564.34;5043130;28;20025;-87
2022/04/26 04:25:48;;;;;;;10.50;6.18;;;;;;;7.93;80.30;101566.00;5042904;28;20036;-88
2022/04/26 04:28:14;;;;;;;10.30;5.93;;;;;;;7.93;80.70;101563.41;5041102;28;20060;-88
2022/04/26 04:30:40;;;;;;;11.20;5.88;;;;;;;7.94;80.12;101567.78;5042704;28;20021;-88
2022/04/26 04:33:05;;;;;;;11.73;5.95;;;;;;;7.92;80.53;101574.59;5042896;28;20021;-88
2022/04/26 04:35:30;;;;;;;10.65;6.00;;;;;;;7.92;80.57;101579.78;5041594;28;20545;-88
2022/04/26 04:37:55;;;;;;;10.98;6.28;;;;;;;7.90;80.78;101571.91;5041912;28;20037;-87
2022/04/26 04:40:21;;;;;;;12.70;6.85;;;;;;;7.90;80.39;101573.63;5041619;28;20311;-87
2022/04/26 04:42:46;;;;;;;10.77;6.68;;;;;;;7.90;80.53;101577.13;5035020;28;20060;-87
2022/04/26 04:45:12;;;;;;;14.30;6.43;;;;;;;7.90;81.21;101584.03;5036998;28;20125;-87
2022/04/26 04:47:37;;;;;;;11.45;5.88;;;;;;;7.89;81.04;101583.09;5041559;28;20025;-87
2022/04/26 04:50:02;;;;;;;9.50;6.10;;;;;;;7.88;81.21;101588.22;5039333;28;20025;-87
2022/04/26 04:52:28;;;;;;;11.82;6.63;;;;;;;7.89;80.73;101590.91;5041265;28;20021;-87
2022/04/26 04:54:53;;;;;;;9.02;5.82;;;;;;;7.89;81.03;101592.59;5042596;28;20021;-87
2022/04/26 04:57:18;;;;;;;9.38;6.07;;;;;;;7.88;81.31;101593.41;5039481;28;20021;-87
2022/04/26 04:59:44;;;;;;;12.43;6.65;;;;;;;7.90;81.06;101604.78;5042576;28;20055;-87
2022/04/26 05:02:09;;;;;;;10.60;5.97;;;;;;;7.89;81.53;101605.59;5042444;28;20017;-87
2022/04/26 05:04:34;;;;;;;10.70;6.47;;;;;;;7.88;81.46;101607.31;5042477;28;20024;-88
2022/04/26 05:07:00;;;;;;;10.73;6.10;;;;;;;7.89;81.56;101608.19;5041589;28;20091;-88
2022/04/26 05:09:25;;;;;;;10.55;5.90;;;;;;;7.91;80.97;101614.34;5041564;28;20028;-88
2022/04/26 05:11:50;;;;;;;10.27;6.13;;;;;;;7.92;81.31;101616.09;5042230;28;20028;-87
2022/04/26 05:14:15;;;;;;;9.57;5.93;;;;;;;7.92;80.93;101613.50;5041311;28;20034;-88
2022/04/26 05:16:41;;;;;;;11.38;6.45;;;;;;;7.93;81.74;101618.75;5041379;28;20468;-88
2022/04/26 05:19:06;;;;;;;10.60;6.32;;;;;;;7.95;81.25;101617.16;5041099;28;20326;-88
2022/04/26 05:21:31;;;;;;;12.38;6.32;;;;;;;7.95;81.09;101624.03;5042271;28;20093;-87
2022/04/26 05:26:40;;;;;;;12.65;6.43;;;;;;;7.96;81.08;101629.28;5039591;28;20187;-87
2022/04/26 05:29:06;;;;;;;15.82;6.85;;;;;;;7.95;81.15;101629.22;5040491;28;20092;-83
2022/04/26 05:31:31;;;;;;;11.23;6.35;;;;;;;7.97;81.00;101635.38;5042163;28;20018;-87
2022/04/26 05:33:56;;;;;;;10.32;6.30;;;;;;;7.98;80.89;101635.47;5042142;28;20080;-87
2022/04/26 05:36:22;;;;;;;10.43;7.10;;;;;;;7.98;81.42;101639.75;5042073;28;20030;-86
2022/04/26 05:38:47;;;;;;;10.10;6.75;;;;;;;7.99;81.37;101647.63;5040822;28;20033;-86
2022/04/26 05:41:13;;;;;;;11.40;6.50;;;;;;;8.00;80.27;101638.13;5042158;28;20049;-86
2022/04/26 05:43:39;;;;;;;14.98;7.32;;;;;;;8.00;81.55;101640.72;5042316;28;20096;-86
2022/04/26 05:46:04;;;;;;;10.57;6.80;;;;;;;8.03;81.33;101645.16;5041761;28;20215;-86
2022/04/26 05:48:30;;;;;;;12.15;6.75;;;;;;;8.04;81.93;101640.03;5040291;28;20048;-86
2022/04/26 05:50:55;;;;;;;10.82;6.88;;;;;;;8.07;81.78;101641.91;5042191;28;20025;-86
2022/04/26 05:53:21;;;;;;;14.15;7.50;;;;;;;8.08;81.90;101641.97;5041960;28;20017;-86
2022/04/26 05:55:46;;;;;;;11.98;7.05;;;;;;;8.11;81.13;101639.50;5039889;28;20052;-80
2022/04/26 05:58:11;;;;;;;11.57;7.05;;;;;;;8.15;81.56;101645.72;5041014;28;20327;-79
2022/04/26 06:00:37;;;;;;;11.02;7.30;;;;;;;8.16;81.79;101645.78;5043415;28;20026;-79
2022/04/26 06:03:02;;;;;;;11.43;7.13;;;;;;;8.19;81.59;101652.84;5043656;28;20025;-79
2022/04/26 06:05:27;;;;;;;12.73;7.68;;;;;;;8.22;81.67;101650.38;5045770;28;20052;-79
2022/04/26 06:07:53;;;;;;;11.30;7.05;;;;;;;8.25;81.95;101652.25;5044394;28;20291;-77
2022/04/26 06:10:18;;;;;;;11.77;7.28;;;;;;;8.26;81.94;101654.91;5044621;28;20025;-79
2022/04/26 06:12:44;;;;;;;13.27;7.78;;;;;;;8.29;81.50;101657.63;5043562;28;20152;-79
2022/04/26 06:15:11;;;;;;;12.00;7.55;;;;;;;8.30;81.62;101662.03;5044416;28;20041;-79
2022/04/26 06:17:36;;;;;;;13.93;7.85;;;;;;;8.34;82.19;101666.53;5043708;28;20032;-79
2022/04/26 06:20:02;;;;;;;12.73;7.75;;;;;;;8.39;82.21;101665.88;5045705;28;20264;-78
2022/04/26 06:22:28;;;;;;;14.20;7.70;;;;;;;8.43;82.21;101666.06;5045503;28;20061;-79
2022/04/26 06:24:54;;;;;;;12.60;8.07;;;;;;;8.46;81.72;101663.63;5045491;28;20287;-78
2022/04/26 06:27:20;;;;;;;13.15;8.45;;;;;;;8.50;81.81;101668.16;5043873;28;20095;-79
2022/04/26 06:29:45;;;;;;;13.68;8.70;;;;;;;8.52;81.17;101666.50;5045505;28;20021;-79
2022/04/26 06:32:11;;;;;;;12.68;8.45;;;;;;;8.55;81.51;101673.56;5045307;28;20033;-79
2022/04/26 06:34:36;;;;;;;13.30;8.30;;;;;;;8.58;81.92;101678.00;5044965;28;20033;-79
2022/04/26 06:37:01;;;;;;;17.80;9.13;;;;;;;8.60;81.93;101685.03;5044198;28;20036;-79
2022/04/26 06:39:27;;;;;;;14.27;8.65;;;;;;;8.62;81.92;101679.94;5045188;28;20064;-79
2022/04/26 06:41:52;;;;;;;13.23;8.80;;;;;;;8.64;82.23;101678.28;5043885;28;20025;-79
2022/04/26 06:44:17;;;;;;;14.63;9.32;;;;;;;8.68;82.06;101685.41;5045094;28;20181;-79
2022/04/26 06:46:42;;;;;;;15.05;9.90;;;;;;;8.69;82.20;101695.84;5045006;28;20219;-77
2022/04/26 06:49:08;;;;;;;15.38;9.77;;;;;;;8.71;82.42;101695.91;5044099;28;20033;-77
2022/04/26 06:51:35;;;;;;;15.07;9.45;;;;;;;8.76;82.36;101698.72;5044871;28;20029;-76
2022/04/26 06:54:01;;;;;;;15.57;9.10;;;;;;;8.80;81.87;101698.03;5044904;28;20025;-76
2022/04/26 06:56:26;;;;;;;15.85;10.43;;;;;;;8.84;82.01;101695.63;5043431;28;20014;-77
2022/04/26 06:58:51;;;;;;;15.25;9.65;;;;;;;8.88;81.56;101694.97;5044008;28;20022;-77
2022/04/26 07:01:16;;;;;;;16.83;11.18;;;;;;;8.93;81.53;101697.75;5043731;28;20017;-77
2022/04/26 07:03:42;;;;;;;16.85;10.80;;;;;;;8.99;81.17;101694.53;5044653;28;20025;-76
2022/04/26 07:06:07;;;;;;;14.63;10.05;;;;;;;9.03;80.37;101701.66;5044766;28;20256;-76
2022/04/26 07:08:33;;;;;;;15.50;10.35;;;;;;;9.05;80.16;101706.09;5043875;28;20075;-76
2022/04/26 07:10:58;;;;;;;15.90;10.70;;;;;;;9.10;80.68;101701.09;5044182;28;20268;-76
2022/04/26 07:13:23;;;;;;;17.98;11.00;;;;;;;9.13;80.50;101698.63;5042994;28;20098;-76
2022/04/26 07:15:48;;;;;;;16.20;11.00;;;;;;;9.20;80.56;101702.38;5044443;28;20025;-77
2022/04/26 07:18:14;;;;;;;16.83;11.25;;;;;;;9.30;80.82;101699.34;5043730;28;20029;-79
2022/04/26 07:20:41;;;;;;;18.42;11.02;;;;;;;9.39;79.66;101704.06;5043305;28;20241;-79
2022/04/26 07:23:07;;;;;;;16.42;10.60;;;;;;;9.47;78.83;101704.38;5043185;28;20071;-79
2022/04/26 07:25:33;;;;;;;16.38;10.88;;;;;;;9.52;79.03;101698.53;5044321;28;20229;-79
2022/04/26 07:27:58;;;;;;;16.85;10.60;;;;;;;9.56;78.75;101708.25;5043695;28;20025;-78
2022/04/26 07:30:23;;;;;;;15.95;11.20;;;;;;;9.58;78.31;101716.13;5042485;28;20075;-78
2022/04/26 07:35:32;;;;;;;15.15;10.20;;;;;;;9.65;77.86;101718.16;5044168;28;20101;-79
2022/04/26 07:38:07;;;;;;;15.60;10.25;;;;;;;9.68;76.75;101723.47;5043453;28;20025;-78
2022/04/26 07:40:33;;;;;;;14.23;9.82;;;;;;;9.69;76.75;101725.28;5041175;28;20387;-79
2022/04/26 07:43:00;;;;;;;14.85;9.93;;;;;;;9.71;75.91;101725.34;5032417;28;20100;-79
2022/04/26 07:45:25;;;;;;;16.63;9.98;;;;;;;9.71;76.40;101723.59;5043842;28;20033;-78
2022/04/26 07:47:51;;;;;;;15.88;9.80;;;;;;;9.75;76.84;101727.25;5041888;28;20042;-76
2022/04/26 07:50:16;;;;;;;13.32;9.38;;;;;;;9.75;75.25;101727.25;5043710;28;20056;-77
2022/04/26 07:52:41;;;;;;;16.92;10.82;;;;;;;9.79;76.50;101726.53;5043795;28;20310;-77
2022/04/26 07:55:07;;;;;;;14.65;9.90;;;;;;;9.81;75.94;101724.88;5043766;28;20029;-76
2022/04/26 07:57:33;;;;;;;14.38;9.73;;;;;;;9.84;76.01;101735.41;5043500;28;20029;-77
2022/04/26 07:59:58;;;;;;;16.20;9.73;;;;;;;9.84;75.60;101745.81;5041214;28;20045;-77
2022/04/26 08:02:24;;;;;;;16.10;10.07;;;;;;;9.87;75.21;101734.66;5043825;28;20183;-76
2022/04/26 08:04:50;;;;;;;14.10;9.77;;;;;;;9.87;75.26;101737.25;5043686;28;20021;-76
2022/04/26 08:07:15;;;;;;;15.00;10.07;;;;;;;9.90;75.79;101740.84;5043402;28;20180;-76
2022/04/26 08:09:40;;;;;;;15.88;10.48;;;;;;;9.95;76.15;101750.56;5042729;28;20030;-77
2022/04/26 08:12:06;;;;;;;14.60;10.10;;;;;;;9.97;75.63;101747.22;5043261;28;20152;-77
2022/04/26 08:14:31;;;;;;;15.32;10.10;;;;;;;10.00;75.20;101755.16;5043504;28;20049;-77
2022/04/26 08:16:57;;;;;;;15.07;10.07;;;;;;;10.03;74.48;101764.81;5043310;28;20037;-76
2022/04/26 08:19:22;;;;;;;15.10;9.60;;;;;;;10.06;74.04;101764.94;5042551;28;20052;-76
2022/04/26 08:21:48;;;;;;;16.17;9.85;;;;;;;10.09;74.19;101770.25;5041363;28;20056;-77
2022/04/26 08:29:41;;;;;;;13.35;9.02;;;;;;;10.25;74.64;101774.38;5042331;28;20320;-77
2022/04/26 08:32:07;;;;;;;15.98;9.57;;;;;;;10.30;74.34;101777.13;5042311;28;20284;-77
2022/04/26 08:34:32;;;;;;;12.55;9.10;;;;;;;10.34;73.63;101779.06;5043101;28;20072;-77
2022/04/26 08:36:58;;;;;;;14.38;9.10;;;;;;;10.40;75.13;101779.34;5041783;28;20028;-77
2022/04/26 08:39:23;;;;;;;13.13;9.73;;;;;;;10.46;74.38;101776.06;5042279;28;20101;-77
2022/04/26 08:41:49;;;;;;;18.63;10.07;;;;;;;10.50;73.88;101777.97;5043066;28;20204;-76
2022/04/26 08:44:14;;;;;;;14.90;9.65;;;;;;;10.54;74.49;101785.06;5042805;28;20029;-77
2022/04/26 08:52:08;;;;;;;14.75;8.93;;;;;;;10.61;73.86;101790.56;5039515;28;20247;-83
2022/04/26 08:54:35;;;;;;;14.63;8.88;;;;;;;10.65;73.24;101788.13;5040838;28;20018;-83
2022/04/26 08:57:00;;;;;;;14.02;8.60;;;;;;;10.68;72.37;101790.84;5041843;28;20033;-83
2022/04/26 08:59:27;;;;;;;12.70;8.57;;;;;;;10.73;73.10;101792.78;5040553;28;20028;-83
2022/04/26 09:02:15;;;;;;;13.55;8.43;;;;;;;10.82;73.07;101793.94;5040729;28;20192;-83
2022/04/26 09:04:42;;;;;;;15.93;9.40;;;;;;;10.92;73.20;101790.84;5038765;28;20354;-83
2022/04/26 09:07:12;;;;;;;13.98;8.40;;;;;;;11.05;72.24;101793.13;5041671;28;20039;-83
2022/04/26 09:09:41;;;;;;;13.02;8.27;;;;;;;11.21;72.10;101794.56;5040963;28;20108;-83
2022/04/26 09:12:11;;;;;;;14.23;9.00;;;;;;;11.36;73.03;101794.22;5038509;28;20080;-83
2022/04/26 09:14:48;;;;;;;12.05;8.85;;;;;;;11.54;73.34;101791.34;5022100;28;20030;-83
2022/04/26 09:17:17;;;;;;;13.93;8.57;;;;;;;11.70;71.66;101794.50;4995709;28;20026;-82
2022/04/26 09:19:55;;;;;;;13.68;8.25;;;;;;;11.76;69.46;101810.38;5020961;28;20037;-83
2022/04/26 09:22:23;;;;;;;13.18;8.30;;;;;;;11.76;68.85;101794.69;5014424;28;20227;-83
2022/04/26 09:24:57;;;;;;;14.27;7.65;;;;;;;11.77;68.89;101796.47;5026093;28;20083;-84
2022/04/26 09:27:23;;;;;;;12.73;7.70;;;;;;;11.79;68.06;101790.50;5004108;28;20145;-84
2022/04/26 09:29:48;;;;;;;12.75;8.05;;;;;;;11.83;67.10;101797.59;5020946;28;20232;-83
2022/04/26 09:32:13;;;;;;;12.10;7.30;;;;;;;11.88;66.33;101796.88;5021251;28;20280;-83
2022/04/26 09:34:39;;;;;;;11.95;7.40;;;;;;;11.97;66.92;101799.81;5023046;28;20041;-83
2022/04/26 09:37:05;;;;;;;13.43;7.80;;;;;;;12.09;69.29;101807.16;5008896;28;20026;-83
2022/04/26 09:39:31;;;;;;;9.35;7.25;;;;;;;12.21;66.78;101804.97;5008726;28;20028;-83
2022/04/26 09:41:56;;;;;;;11.07;6.93;;;;;;;12.30;65.08;101810.47;5026416;28;20068;-83
2022/04/26 09:44:32;;;;;;;10.45;6.65;;;;;;;12.38;66.62;101821.16;5025692;28;20022;-83
2022/04/26 09:46:58;;;;;;;9.88;5.97;;;;;;;12.46;64.59;101821.41;5008795;28;20022;-83
2022/04/26 09:49:25;;;;;;;9.77;6.28;;;;;;;12.57;64.82;101825.25;5025271;28;20044;-83
2022/04/26 09:51:54;;;;;;;8.98;6.00;;;;;;;12.68;65.44;101825.56;5025212;28;20026;-84
2022/04/26 09:54:20;;;;;;;9.88;6.60;;;;;;;12.80;64.31;101832.91;5025032;28;20056;-83
2022/04/26 09:56:47;;;;;;;11.32;6.28;;;;;;;12.90;63.62;101829.72;5026291;28;20140;-83
2022/04/26 09:59:25;;;;;;;10.88;6.28;;;;;;;12.98;62.80;101825.63;5024794;28;20026;-83
2022/04/26 10:01:55;;;;;;;11.32;6.22;;;;;;;13.07;61.38;101830.22;5022979;28;20064;-83
2022/04/26 10:04:23;;;;;;;9.60;6.22;;;;;;;13.12;60.05;101835.59;5008245;28;20076;-83
2022/04/26 10:07:12;;;;;;;10.52;6.25;;;;;;;13.20;62.56;101834.09;5008210;28;20022;-84
2022/04/26 10:09:38;;;;;;;10.05;6.40;;;;;;;13.30;64.05;101835.25;5025244;28;20046;-84
2022/04/26 10:12:04;;;;;;;10.57;6.32;;;;;;;13.33;62.06;101836.22;5027838;28;20089;-84
2022/04/26 10:14:31;;;;;;;9.32;6.55;;;;;;;13.37;61.49;101840.72;5045437;28;20032;-83
2022/04/26 10:16:57;;;;;;;11.13;6.88;;;;;;;13.44;64.06;101841.78;5045349;28;20032;-84
2022/04/26 10:19:40;;;;;;;12.38;6.28;;;;;;;13.48;61.92;101848.84;5044553;28;20192;-84
2022/04/26 10:22:08;;;;;;;9.85;6.30;;;;;;;13.50;60.35;101851.56;5044392;28;20192;-84
2022/04/26 10:24:34;;;;;;;11.50;6.40;;;;;;;13.52;60.48;101845.50;5044540;28;20145;-83
2022/04/26 10:27:25;;;;;;;9.80;5.80;;;;;;;13.60;62.48;101856.19;5044383;28;20048;-84
2022/04/26 10:29:51;;;;;;;10.52;6.40;;;;;;;13.71;59.86;101857.34;5043437;28;20143;-84
2022/04/26 10:32:31;;;;;;;10.38;6.45;;;;;;;13.81;59.94;101862.84;5045268;28;20093;-84
2022/04/26 10:35:25;;;;;;;9.15;5.93;;;;;;;13.85;61.65;101851.63;5043751;28;20253;-84
2022/04/26 10:38:15;;;;;;;10.82;6.38;;;;;;;13.88;60.89;101851.69;5042109;28;20324;-84
2022/04/26 10:41:10;;;;;;;10.52;6.07;;;;;;;13.83;59.91;101858.53;5038723;28;20033;-83
2022/04/26 10:43:35;;;;;;;9.70;6.10;;;;;;;13.79;58.74;101860.19;5036166;28;20071;-83
2022/04/26 10:46:11;;;;;;;10.30;6.20;;;;;;;13.77;56.63;101863.63;5044239;28;20041;-83
2022/04/26 10:48:37;;;;;;;9.80;5.63;;;;;;;13.79;58.83;101864.53;5043092;28;20033;-83
2022/04/26 10:51:31;;;;;;;9.10;5.70;;;;;;;13.89;58.81;101875.31;5044717;28;20021;-84
2022/04/26 10:53:57;;;;;;;9.48;5.95;;;;;;;13.91;54.23;101872.72;5043505;28;20032;-84
2022/04/26 10:56:22;;;;;;;8.93;5.38;;;;;;;13.87;55.13;101870.88;5045049;28;20025;-83
2022/04/26 10:58:54;;;;;;;8.50;5.85;;;;;;;13.85;55.34;101875.19;5043064;28;20029;-83
2022/04/26 11:01:23;;;;;;;9.27;5.78;;;;;;;13.83;54.98;101875.16;5043887;28;20081;-83
2022/04/26 11:03:55;;;;;;;9.30;5.97;;;;;;;13.81;54.06;101870.72;5043385;28;20045;-84
2022/04/26 11:06:42;;;;;;;8.25;5.35;;;;;;;13.80;56.04;101875.06;5043914;28;20024;-84
2022/04/26 11:09:14;;;;;;;8.80;5.75;;;;;;;13.77;54.12;101872.34;5043946;28;20033;-83
2022/04/26 11:11:53;;;;;;;7.82;5.97;;;;;;;13.80;56.14;101868.94;5036675;28;20279;-79
2022/04/26 11:14:20;;;;;;;8.48;6.25;;;;;;;13.91;54.98;101870.09;5042805;28;20045;-83
2022/04/26 11:17:03;;;;;;;10.00;6.55;;;;;;;14.05;57.89;101860.88;5039640;28;20041;-83
2022/04/26 11:19:31;;;;;;;8.43;5.95;;;;;;;14.17;55.49;101860.28;5042810;28;20025;-73
2022/04/26 11:22:02;;;;;;;9.20;5.88;;;;;;;14.24;53.41;101864.84;5044558;28;20040;-74
2022/04/26 11:29:55;;;;;;;10.27;6.75;;;;;;;14.52;56.21;101860.25;5044822;28;20123;-76
2022/04/26 11:32:31;;;;;;;9.48;6.50;;;;;;;14.64;56.45;101864.06;5044672;28;20021;-76
2022/04/26 11:34:58;;;;;;;10.80;6.78;;;;;;;14.65;53.14;101857.97;5044713;28;20026;-77
2022/04/26 11:37:24;;;;;;;9.80;6.93;;;;;;;14.64;52.42;101867.56;5043653;28;20037;-76
2022/04/26 11:39:49;;;;;;;10.10;6.70;;;;;;;14.67;53.58;101864.13;5044559;28;20047;-76
2022/04/26 11:42:15;;;;;;;9.45;7.15;;;;;;;14.69;52.37;101865.06;5043211;28;20268;-76
2022/04/26 11:45:04;;;;;;;10.02;6.93;;;;;;;14.71;54.46;101865.97;5044567;28;20288;-77
2022/04/26 11:47:48;;;;;;;9.93;6.85;;;;;;;14.73;52.76;101867.78;5043819;28;20108;-76
2022/04/26 11:50:17;;;;;;;11.05;6.55;;;;;;;14.72;47.92;101867.75;5043194;28;20053;-76
2022/04/26 11:52:44;;;;;;;11.10;7.18;;;;;;;14.74;51.39;101872.19;5054608;28;20040;-76
2022/04/26 11:55:27;;;;;;;9.10;6.63;;;;;;;14.81;52.49;101873.19;5049131;28;20027;-76
2022/04/26 11:58:05;;;;;;;9.40;6.60;;;;;;;14.88;52.80;101882.97;5047926;28;20033;-76
2022/04/26 12:00:30;;;;;;;8.73;6.55;;;;;;;14.90;48.81;101886.53;5050920;28;20025;-76
2022/04/26 12:02:56;;;;;;;8.02;5.53;;;;;;;14.96;51.15;101891.00;5050215;28;20021;-76
2022/04/26 12:05:22;;;;;;;8.63;5.93;;;;;;;15.03;50.82;101882.44;5052670;28;20040;-76
2022/04/26 12:07:49;;;;;;;7.80;5.57;;;;;;;15.06;49.62;101881.63;5049907;28;20049;-76
2022/04/26 12:10:48;;;;;;;12.05;6.10;;;;;;;15.15;51.71;101894.97;5050961;28;20260;-76
2022/04/26 12:13:14;;;;;;;;;;;;;;;15.19;53.36;101883.66;5015801;28;20037;-76
2022/04/26 12:15:39;;;;;;;9.60;5.93;;;;;;;15.22;48.33;101882.81;5043900;28;20169;-76
2022/04/26 12:18:14;;;;;;;10.32;5.75;;;;;;;15.25;48.22;101881.16;5108295;27;20176;-74
2022/04/26 12:21:00;;;;;;;11.68;5.53;;;;;;;15.33;50.89;101881.31;5117563;28;20012;-75
2022/04/26 12:23:27;;;;;;;8.68;5.47;;;;;;;15.38;46.80;101882.31;5100598;28;20189;-75
2022/04/26 12:26:03;;;;;;;9.10;5.57;;;;;;;15.45;48.79;101886.84;5101830;28;20030;-75
2022/04/26 12:28:29;;;;;;;7.25;5.20;;;;;;;15.52;46.43;101889.56;5101543;28;20219;-75
2022/04/26 12:30:55;;;;;;;6.93;5.30;;;;;;;15.55;45.31;101881.75;5101639;28;20278;-75
2022/04/26 12:33:30;;;;;;;7.03;5.32;;;;;;;15.61;48.19;101890.66;5100780;28;20032;-74
2022/04/26 12:36:04;;;;;;;7.43;5.32;;;;;;;15.64;46.36;101885.44;5100772;28;20020;-75
2022/04/26 12:38:30;;;;;;;7.72;5.15;;;;;;;15.60;43.98;101891.50;5101186;28;20070;-75
2022/04/26 12:41:03;;;;;;;9.23;5.70;;;;;;;15.56;45.17;101884.41;5101221;28;20016;-75
2022/04/26 12:43:29;;;;;;;8.55;5.82;;;;;;;15.54;46.18;101890.47;5100432;28;20028;-75
2022/04/26 12:45:59;;;;;;;7.47;5.40;;;;;;;15.46;45.77;101882.47;5101367;28;20032;-75
2022/04/26 12:51:27;;;;;;;9.43;6.20;;;;;;;15.36;46.84;101886.63;5101038;28;20080;-74
2022/04/26 12:54:05;;;;;;;10.38;6.28;;;;;;;15.30;45.85;101884.75;5100393;28;20079;-74
2022/04/26 12:56:30;;;;;;;9.02;5.65;;;;;;;15.28;46.58;101883.84;5100526;28;20020;-73
2022/04/26 12:58:55;;;;;;;8.48;5.63;;;;;;;15.27;46.09;101886.44;5100996;28;20017;-73
2022/04/26 13:01:21;;;;;;;10.35;6.40;;;;;;;15.30;47.51;101883.88;5101384;28;20026;-73
2022/04/26 13:03:47;;;;;;;9.68;6.30;;;;;;;15.34;46.65;101888.34;5100136;28;20016;-73
2022/04/26 13:06:15;;;;;;;12.93;6.80;;;;;;;15.38;48.40;101884.03;5099529;28;20255;-73
2022/04/26 13:08:43;;;;;;;8.20;6.53;;;;;;;15.43;49.58;101883.28;5115830;28;20099;-73
2022/04/26 13:11:09;;;;;;;9.05;6.93;;;;;;;15.55;49.35;101876.50;5100009;28;20024;-73
2022/04/26 13:13:36;;;;;;;9.95;7.03;;;;;;;15.59;47.89;101879.22;5100730;28;20215;-73
2022/04/26 13:16:02;;;;;;;9.65;6.35;;;;;;;15.67;49.84;101882.00;5099297;28;20008;-74
2022/04/26 13:18:31;;;;;;;9.82;6.13;;;;;;;15.77;49.36;101883.94;5098134;28;20028;-73
2022/04/26 13:20:57;;;;;;;10.55;6.80;;;;;;;15.87;48.44;101884.16;5098781;28;20087;-73
2022/04/26 13:23:24;;;;;;;9.80;6.13;;;;;;;15.92;49.23;101893.00;5099328;28;20023;-73
2022/04/26 13:25:49;;;;;;;8.73;6.47;;;;;;;15.97;47.88;101886.97;5100509;28;20016;-73
2022/04/26 13:28:15;;;;;;;9.48;6.47;;;;;;;16.01;47.35;101889.66;5094217;28;20091;-74
2022/04/26 13:30:41;;;;;;;8.55;6.03;;;;;;;15.99;48.63;101879.13;5085994;28;20203;-73
2022/04/26 13:33:07;;;;;;;10.48;6.43;;;;;;;16.01;47.82;101877.41;5086832;28;20016;-73
2022/04/26 13:35:33;;;;;;;9.43;6.10;;;;;;;16.01;48.35;101876.53;5086884;28;20031;-73
2022/04/26 13:37:59;;;;;;;10.20;6.20;;;;;;;16.00;47.76;101886.13;5086735;28;20178;-73
2022/04/26 13:40:25;;;;;;;8.82;6.15;;;;;;;16.06;47.30;101888.91;5086268;28;20263;-73
2022/04/26 13:42:51;;;;;;;10.07;5.97;;;;;;;16.08;47.89;101889.78;5086046;28;20068;-73
2022/04/26 13:45:17;;;;;;;9.52;6.15;;;;;;;16.07;46.81;101898.53;5085555;28;20159;-73
2022/04/26 13:47:43;;;;;;;8.93;6.13;;;;;;;16.01;45.31;101893.16;5085399;28;20016;-73
2022/04/26 13:50:09;;;;;;;8.98;6.13;;;;;;;16.02;48.67;101894.94;5085963;28;20267;-73
2022/04/26 13:52:34;;;;;;;8.10;5.72;;;;;;;16.04;48.73;101887.09;5086588;28;20029;-73
2022/04/26 13:55:00;;;;;;;9.65;5.82;;;;;;;16.05;46.88;101888.84;5085290;28;20025;-73
2022/04/26 13:57:25;;;;;;;8.43;5.60;;;;;;;16.07;47.58;101901.16;5086185;28;20019;-74
2022/04/26 13:59:51;;;;;;;9.80;6.25;;;;;;;16.03;45.46;101896.69;5085898;28;20143;-73
2022/04/26 14:02:18;;;;;;;8.50;6.05;;;;;;;16.02;46.47;101904.56;5085876;28;20024;-73
2022/04/26 14:04:44;;;;;;;9.95;5.95;;;;;;;15.97;46.96;101897.50;5086358;28;20029;-73
2022/04/26 14:07:10;;;;;;;9.10;5.78;;;;;;;15.95;46.07;101903.56;5086313;28;20021;-73
2022/04/26 14:09:35;;;;;;;7.45;5.93;;;;;;;15.90;45.79;101895.63;5085619;28;20028;-73
2022/04/26 14:12:01;;;;;;;8.98;5.80;;;;;;;15.85;45.61;101897.25;5086004;28;20027;-73
2022/04/26 14:22:41;;;;;;;11.57;5.50;;;;;;;15.72;45.90;101904.00;5083702;28;20036;-82
2022/04/26 14:25:11;;;;;;;7.25;5.25;;;;;;;15.63;44.06;101902.06;5084012;28;20087;-83
2022/04/26 14:27:38;;;;;;;8.55;5.35;;;;;;;15.62;46.40;101904.66;5084000;28;20028;-79
2022/04/26 14:30:06;;;;;;;8.65;5.20;;;;;;;15.60;45.44;101901.13;5084972;28;20016;-79
2022/04/26 14:32:31;;;;;;;9.30;5.60;;;;;;;15.59;45.63;101900.22;5084481;28;20048;-79
2022/04/26 14:34:57;;;;;;;6.75;5.15;;;;;;;15.54;44.56;101906.25;5084380;28;20016;-79
2022/04/26 14:37:25;;;;;;;10.40;5.32;;;;;;;15.48;45.23;101894.78;5084318;28;20028;-79
2022/04/26 14:39:51;;;;;;;8.95;5.55;;;;;;;15.45;46.46;101902.59;5082129;28;20031;-80
2022/04/26 14:42:17;;;;;;;7.47;5.25;;;;;;;15.44;46.89;101906.06;5085454;28;20065;-80
2022/04/26 14:44:43;;;;;;;9.52;5.07;;;;;;;15.39;46.30;101902.44;5084657;28;20084;-79
2022/04/26 14:47:09;;;;;;;8.63;5.53;;;;;;;15.37;46.67;101909.41;5084450;28;20001;-79
2022/04/26 14:49:34;;;;;;;8.05;5.55;;;;;;;15.38;46.72;101918.16;5084204;28;20026;-79
2022/04/26 14:52:00;;;;;;;8.55;5.70;;;;;;;15.34;47.03;101911.06;5088494;28;20044;-79
2022/04/26 14:54:25;;;;;;;8.60;5.80;;;;;;;15.29;46.36;101911.91;5085277;28;20259;-79
2022/04/26 14:56:50;;;;;;;9.57;5.55;;;;;;;15.26;46.29;101910.94;5085305;28;20025;-79
2022/04/26 14:59:17;;;;;;;7.28;5.60;;;;;;;15.22;46.73;101915.25;5085263;28;20312;-79
2022/04/26 15:01:46;;;;;;;7.97;5.43;;;;;;;15.16;44.95;101919.47;5085122;28;20017;-79
2022/04/26 15:04:15;;;;;;;7.78;5.57;;;;;;;15.10;46.02;101918.47;5085065;28;20170;-79
2022/04/26 15:06:40;;;;;;;;;;;;;;;15.15;48.68;101913.34;5082631;28;19996;-79
2022/04/26 15:16:37;;;;;;;9.02;5.68;;;;;;;15.05;46.72;101916.63;5080762;28;20269;-79
2022/04/26 15:17:19;;;;;;;8.30;5.28;;;;;;;15.02;46.40;101920.03;5083433;28;20090;-79
2022/04/26 15:19:44;;;;;;;9.00;5.20;;;;;;;15.01;45.10;101905.16;5083646;28;20019;-79
2022/04/26 15:22:11;;;;;;;8.35;5.30;;;;;;;15.05;46.01;101916.63;5083659;28;20171;-79
2022/04/26 15:24:36;;;;;;;7.25;5.30;;;;;;;15.10;46.18;101912.34;5083482;28;20264;-79
2022/04/26 15:27:02;;;;;;;7.40;5.18;;;;;;;15.17;45.00;101909.00;5083709;28;20058;-79
2022/04/26 15:29:27;;;;;;;7.80;4.78;;;;;;;15.24;45.46;101905.66;5084699;28;20021;-79
2022/04/26 15:31:52;;;;;;;8.82;5.20;;;;;;;15.28;44.10;101911.88;5084532;28;20020;-79
2022/04/26 15:34:17;;;;;;;7.25;4.90;;;;;;;15.30;42.14;101913.66;5083757;28;20171;-79
2022/04/26 15:36:43;;;;;;;7.63;4.78;;;;;;;15.34;42.57;101913.72;5083158;28;20182;-79
2022/04/26 15:39:08;;;;;;;6.95;4.80;;;;;;;15.40;44.03;101903.34;5083383;28;20174;-79
2022/04/26 15:41:33;;;;;;;7.25;4.38;;;;;;;15.43;42.05;101912.16;5084366;28;20069;-79
2022/04/26 15:44:00;;;;;;;8.75;4.80;;;;;;;15.46;42.58;101914.84;5078696;28;20271;-79